sensor_id;sensor_type;location;lat;lon;timestamp;P1;durP1;ratioP1;P2;durP2;ratioP2
40162;SDS011;25881;47.462;19.304;2023-02-15T00:02:22;36.00;;;22.45;;
40162;SDS011;25881;47.462;19.304;2023-02-15T00:04:49;35.53;;;22.40;;
40162;SDS011;25881;47.462;19.304;2023-02-15T00:07:15;36.33;;;21.23;;
40162;SDS011;25881;47.462;19.304;2023-02-15T00:09:41;34.72;;;20.88;;
40162;SDS011;25881;47.462;19.304;2023-02-15T00:12:06;33.10;;;21.13;;
40162;SDS011;25881;47.462;19.304;2023-02-15T00:14:31;37.58;;;23.02;;
40162;SDS011;25881;47.462;19.304;2023-02-15T00:16:57;38.70;;;23.17;;
40162;SDS011;25881;47.462;19.304;2023-02-15T00:19:24;34.87;;;21.50;;
40162;SDS011;25881;47.462;19.304;2023-02-15T00:21:50;39.53;;;23.42;;
40162;SDS011;25881;47.462;19.304;2023-02-15T00:24:16;34.67;;;21.77;;
40162;SDS011;25881;47.462;19.304;2023-02-15T00:26:42;32.78;;;20.98;;
40162;SDS011;25881;47.462;19.304;2023-02-15T00:29:08;38.90;;;23.70;;
40162;SDS011;25881;47.462;19.304;2023-02-15T00:31:33;47.95;;;29.08;;
40162;SDS011;25881;47.462;19.304;2023-02-15T00:36:30;49.38;;;29.17;;
40162;SDS011;25881;47.462;19.304;2023-02-15T00:38:55;54.13;;;29.75;;
40162;SDS011;25881;47.462;19.304;2023-02-15T00:41:21;49.05;;;28.58;;
40162;SDS011;25881;47.462;19.304;2023-02-15T00:43:46;45.33;;;27.63;;
40162;SDS011;25881;47.462;19.304;2023-02-15T00:46:11;45.50;;;26.03;;
40162;SDS011;25881;47.462;19.304;2023-02-15T00:48:36;44.90;;;26.23;;
40162;SDS011;25881;47.462;19.304;2023-02-15T00:51:02;43.90;;;25.23;;
40162;SDS011;25881;47.462;19.304;2023-02-15T00:53:27;48.45;;;27.73;;
40162;SDS011;25881;47.462;19.304;2023-02-15T00:55:53;43.38;;;26.67;;
40162;SDS011;25881;47.462;19.304;2023-02-15T00:58:18;44.47;;;25.52;;
40162;SDS011;25881;47.462;19.304;2023-02-15T01:00:44;43.13;;;25.83;;
40162;SDS011;25881;47.462;19.304;2023-02-15T01:03:10;44.78;;;25.77;;
40162;SDS011;25881;47.462;19.304;2023-02-15T01:05:35;41.92;;;24.45;;
40162;SDS011;25881;47.462;19.304;2023-02-15T01:08:00;45.10;;;24.30;;
40162;SDS011;25881;47.462;19.304;2023-02-15T01:10:26;46.15;;;25.80;;
40162;SDS011;25881;47.462;19.304;2023-02-15T01:12:51;42.33;;;25.65;;
40162;SDS011;25881;47.462;19.304;2023-02-15T01:15:17;40.22;;;23.98;;
40162;SDS011;25881;47.462;19.304;2023-02-15T01:17:42;41.55;;;25.13;;
40162;SDS011;25881;47.462;19.304;2023-02-15T01:20:10;49.40;;;25.15;;
40162;SDS011;25881;47.462;19.304;2023-02-15T01:22:36;44.28;;;26.00;;
40162;SDS011;25881;47.462;19.304;2023-02-15T01:25:01;46.90;;;25.43;;
40162;SDS011;25881;47.462;19.304;2023-02-15T01:27:26;40.17;;;25.42;;
40162;SDS011;25881;47.462;19.304;2023-02-15T01:29:55;54.70;;;29.88;;
40162;SDS011;25881;47.462;19.304;2023-02-15T01:32:20;45.45;;;27.80;;
40162;SDS011;25881;47.462;19.304;2023-02-15T01:34:45;49.83;;;27.40;;
40162;SDS011;25881;47.462;19.304;2023-02-15T01:37:11;42.70;;;26.00;;
40162;SDS011;25881;47.462;19.304;2023-02-15T01:39:36;47.73;;;28.50;;
40162;SDS011;25881;47.462;19.304;2023-02-15T01:42:01;44.20;;;27.07;;
40162;SDS011;25881;47.462;19.304;2023-02-15T01:47:11;41.15;;;23.67;;
40162;SDS011;25881;47.462;19.304;2023-02-15T01:49:38;34.78;;;20.90;;
40162;SDS011;25881;47.462;19.304;2023-02-15T01:52:06;37.78;;;20.83;;
40162;SDS011;25881;47.462;19.304;2023-02-15T01:54:32;36.90;;;21.27;;
40162;SDS011;25881;47.462;19.304;2023-02-15T01:57:02;38.65;;;22.27;;
40162;SDS011;25881;47.462;19.304;2023-02-15T01:59:28;39.90;;;22.45;;
40162;SDS011;25881;47.462;19.304;2023-02-15T02:01:55;36.35;;;20.40;;
40162;SDS011;25881;47.462;19.304;2023-02-15T02:04:28;34.65;;;20.13;;
40162;SDS011;25881;47.462;19.304;2023-02-15T02:06:54;38.25;;;21.10;;
40162;SDS011;25881;47.462;19.304;2023-02-15T02:09:21;36.17;;;20.20;;
40162;SDS011;25881;47.462;19.304;2023-02-15T02:11:47;34.57;;;20.33;;
40162;SDS011;25881;47.462;19.304;2023-02-15T02:14:12;31.15;;;19.20;;
40162;SDS011;25881;47.462;19.304;2023-02-15T02:16:41;32.88;;;19.17;;
40162;SDS011;25881;47.462;19.304;2023-02-15T02:26:49;37.90;;;23.73;;
40162;SDS011;25881;47.462;19.304;2023-02-15T02:29:30;39.53;;;22.98;;
40162;SDS011;25881;47.462;19.304;2023-02-15T02:34:28;35.35;;;20.65;;
40162;SDS011;25881;47.462;19.304;2023-02-15T02:37:07;36.50;;;21.38;;
40162;SDS011;25881;47.462;19.304;2023-02-15T02:39:50;34.47;;;20.70;;
40162;SDS011;25881;47.462;19.304;2023-02-15T02:42:22;42.38;;;22.60;;
40162;SDS011;25881;47.462;19.304;2023-02-15T02:45:09;41.08;;;23.10;;
40162;SDS011;25881;47.462;19.304;2023-02-15T02:50:05;42.20;;;22.95;;
40162;SDS011;25881;47.462;19.304;2023-02-15T02:52:35;43.92;;;24.52;;
40162;SDS011;25881;47.462;19.304;2023-02-15T02:55:01;44.63;;;25.48;;
40162;SDS011;25881;47.462;19.304;2023-02-15T02:57:28;41.22;;;22.67;;
40162;SDS011;25881;47.462;19.304;2023-02-15T02:59:53;41.70;;;24.33;;
40162;SDS011;25881;47.462;19.304;2023-02-15T03:02:21;47.08;;;25.27;;
40162;SDS011;25881;47.462;19.304;2023-02-15T03:04:48;42.57;;;24.97;;
40162;SDS011;25881;47.462;19.304;2023-02-15T03:07:16;44.80;;;25.58;;
40162;SDS011;25881;47.462;19.304;2023-02-15T03:09:47;49.13;;;27.33;;
40162;SDS011;25881;47.462;19.304;2023-02-15T03:12:16;47.37;;;26.17;;
40162;SDS011;25881;47.462;19.304;2023-02-15T03:14:42;42.60;;;26.00;;
40162;SDS011;25881;47.462;19.304;2023-02-15T03:17:09;40.15;;;21.63;;
40162;SDS011;25881;47.462;19.304;2023-02-15T03:19:36;37.22;;;23.08;;
40162;SDS011;25881;47.462;19.304;2023-02-15T03:22:36;35.90;;;21.60;;
40162;SDS011;25881;47.462;19.304;2023-02-15T03:24:59;37.75;;;21.40;;
40162;SDS011;25881;47.462;19.304;2023-02-15T03:27:25;38.67;;;21.83;;
40162;SDS011;25881;47.462;19.304;2023-02-15T03:29:53;38.03;;;21.80;;
40162;SDS011;25881;47.462;19.304;2023-02-15T03:32:18;36.95;;;20.30;;
40162;SDS011;25881;47.462;19.304;2023-02-15T03:34:44;38.88;;;22.63;;
40162;SDS011;25881;47.462;19.304;2023-02-15T03:42:55;38.05;;;21.23;;
40162;SDS011;25881;47.462;19.304;2023-02-15T03:45:24;41.72;;;21.42;;
40162;SDS011;25881;47.462;19.304;2023-02-15T03:47:50;35.80;;;21.10;;
40162;SDS011;25881;47.462;19.304;2023-02-15T03:50:21;46.45;;;22.55;;
40162;SDS011;25881;47.462;19.304;2023-02-15T03:53:07;42.92;;;22.27;;
40162;SDS011;25881;47.462;19.304;2023-02-15T03:55:34;41.38;;;23.52;;
40162;SDS011;25881;47.462;19.304;2023-02-15T03:57:59;43.97;;;23.88;;
40162;SDS011;25881;47.462;19.304;2023-02-15T04:00:53;42.28;;;23.45;;
40162;SDS011;25881;47.462;19.304;2023-02-15T04:03:39;51.33;;;25.80;;
40162;SDS011;25881;47.462;19.304;2023-02-15T04:06:05;42.72;;;23.27;;
40162;SDS011;25881;47.462;19.304;2023-02-15T04:08:31;41.17;;;22.57;;
40162;SDS011;25881;47.462;19.304;2023-02-15T04:11:14;45.67;;;23.90;;
40162;SDS011;25881;47.462;19.304;2023-02-15T04:13:40;44.08;;;24.80;;
40162;SDS011;25881;47.462;19.304;2023-02-15T04:16:05;46.53;;;25.15;;
40162;SDS011;25881;47.462;19.304;2023-02-15T04:18:31;46.30;;;25.52;;
40162;SDS011;25881;47.462;19.304;2023-02-15T04:21:15;45.08;;;25.98;;
40162;SDS011;25881;47.462;19.304;2023-02-15T04:23:59;50.65;;;25.35;;
40162;SDS011;25881;47.462;19.304;2023-02-15T04:26:43;46.88;;;26.27;;
40162;SDS011;25881;47.462;19.304;2023-02-15T04:29:08;45.70;;;25.97;;
40162;SDS011;25881;47.462;19.304;2023-02-15T04:31:34;51.47;;;25.73;;
40162;SDS011;25881;47.462;19.304;2023-02-15T04:33:59;43.83;;;26.50;;
40162;SDS011;25881;47.462;19.304;2023-02-15T04:36:24;47.40;;;25.50;;
40162;SDS011;25881;47.462;19.304;2023-02-15T04:38:49;49.20;;;26.27;;
40162;SDS011;25881;47.462;19.304;2023-02-15T04:41:15;46.77;;;24.97;;
40162;SDS011;25881;47.462;19.304;2023-02-15T04:43:40;48.53;;;26.45;;
40162;SDS011;25881;47.462;19.304;2023-02-15T04:46:05;47.97;;;24.27;;
40162;SDS011;25881;47.462;19.304;2023-02-15T04:48:30;45.55;;;25.30;;
40162;SDS011;25881;47.462;19.304;2023-02-15T04:50:56;45.33;;;25.47;;
40162;SDS011;25881;47.462;19.304;2023-02-15T04:53:21;50.20;;;26.60;;
40162;SDS011;25881;47.462;19.304;2023-02-15T04:55:46;47.63;;;26.30;;
40162;SDS011;25881;47.462;19.304;2023-02-15T04:58:11;45.37;;;26.10;;
40162;SDS011;25881;47.462;19.304;2023-02-15T05:00:37;48.35;;;27.08;;
40162;SDS011;25881;47.462;19.304;2023-02-15T05:03:02;48.03;;;25.40;;
40162;SDS011;25881;47.462;19.304;2023-02-15T05:05:28;47.88;;;26.42;;
40162;SDS011;25881;47.462;19.304;2023-02-15T05:07:53;49.50;;;27.47;;
40162;SDS011;25881;47.462;19.304;2023-02-15T05:10:18;49.63;;;27.67;;
40162;SDS011;25881;47.462;19.304;2023-02-15T05:12:44;52.70;;;28.65;;
40162;SDS011;25881;47.462;19.304;2023-02-15T05:15:09;55.03;;;29.33;;
40162;SDS011;25881;47.462;19.304;2023-02-15T05:17:34;55.08;;;28.90;;
40162;SDS011;25881;47.462;19.304;2023-02-15T05:19:59;55.50;;;30.10;;
40162;SDS011;25881;47.462;19.304;2023-02-15T05:22:25;55.60;;;29.50;;
40162;SDS011;25881;47.462;19.304;2023-02-15T05:24:50;57.33;;;29.90;;
40162;SDS011;25881;47.462;19.304;2023-02-15T05:27:34;53.60;;;30.63;;
40162;SDS011;25881;47.462;19.304;2023-02-15T05:30:18;51.00;;;28.23;;
40162;SDS011;25881;47.462;19.304;2023-02-15T05:32:43;57.47;;;30.95;;
40162;SDS011;25881;47.462;19.304;2023-02-15T05:35:11;54.33;;;29.23;;
40162;SDS011;25881;47.462;19.304;2023-02-15T05:37:37;55.53;;;28.85;;
40162;SDS011;25881;47.462;19.304;2023-02-15T05:40:02;55.60;;;28.03;;
40162;SDS011;25881;47.462;19.304;2023-02-15T05:42:28;53.17;;;27.92;;
40162;SDS011;25881;47.462;19.304;2023-02-15T05:44:53;50.93;;;28.03;;
40162;SDS011;25881;47.462;19.304;2023-02-15T05:47:18;50.88;;;27.85;;
40162;SDS011;25881;47.462;19.304;2023-02-15T05:49:43;52.97;;;29.20;;
40162;SDS011;25881;47.462;19.304;2023-02-15T05:52:09;58.07;;;30.40;;
40162;SDS011;25881;47.462;19.304;2023-02-15T05:54:34;60.03;;;30.13;;
40162;SDS011;25881;47.462;19.304;2023-02-15T05:56:59;61.13;;;31.47;;
40162;SDS011;25881;47.462;19.304;2023-02-15T05:59:24;56.30;;;30.47;;
40162;SDS011;25881;47.462;19.304;2023-02-15T06:01:50;54.63;;;29.75;;
40162;SDS011;25881;47.462;19.304;2023-02-15T06:04:15;54.67;;;29.90;;
40162;SDS011;25881;47.462;19.304;2023-02-15T06:06:40;57.27;;;32.57;;
40162;SDS011;25881;47.462;19.304;2023-02-15T06:09:05;60.00;;;33.37;;
40162;SDS011;25881;47.462;19.304;2023-02-15T06:11:31;57.60;;;31.70;;
40162;SDS011;25881;47.462;19.304;2023-02-15T06:13:56;60.87;;;32.73;;
40162;SDS011;25881;47.462;19.304;2023-02-15T06:16:21;65.07;;;33.33;;
40162;SDS011;25881;47.462;19.304;2023-02-15T06:18:47;62.95;;;33.70;;
40162;SDS011;25881;47.462;19.304;2023-02-15T06:21:12;60.57;;;34.77;;
40162;SDS011;25881;47.462;19.304;2023-02-15T06:23:37;82.72;;;44.88;;
40162;SDS011;25881;47.462;19.304;2023-02-15T06:26:03;76.38;;;41.70;;
40162;SDS011;25881;47.462;19.304;2023-02-15T06:28:28;73.80;;;41.63;;
40162;SDS011;25881;47.462;19.304;2023-02-15T06:30:53;75.88;;;40.70;;
40162;SDS011;25881;47.462;19.304;2023-02-15T06:33:18;71.50;;;36.83;;
40162;SDS011;25881;47.462;19.304;2023-02-15T06:35:44;72.40;;;37.27;;
40162;SDS011;25881;47.462;19.304;2023-02-15T06:38:09;73.10;;;38.08;;
40162;SDS011;25881;47.462;19.304;2023-02-15T06:40:35;63.17;;;35.37;;
40162;SDS011;25881;47.462;19.304;2023-02-15T06:43:00;78.95;;;40.03;;
40162;SDS011;25881;47.462;19.304;2023-02-15T06:45:25;69.57;;;38.90;;
40162;SDS011;25881;47.462;19.304;2023-02-15T06:47:50;69.65;;;35.17;;
40162;SDS011;25881;47.462;19.304;2023-02-15T06:50:16;68.27;;;37.03;;
40162;SDS011;25881;47.462;19.304;2023-02-15T06:52:41;67.57;;;34.60;;
40162;SDS011;25881;47.462;19.304;2023-02-15T06:55:09;64.13;;;35.72;;
40162;SDS011;25881;47.462;19.304;2023-02-15T06:57:34;66.80;;;35.15;;
40162;SDS011;25881;47.462;19.304;2023-02-15T07:00:00;61.00;;;32.67;;
40162;SDS011;25881;47.462;19.304;2023-02-15T07:02:25;56.65;;;32.67;;
40162;SDS011;25881;47.462;19.304;2023-02-15T07:04:50;60.80;;;30.93;;
40162;SDS011;25881;47.462;19.304;2023-02-15T07:07:15;56.80;;;30.67;;
40162;SDS011;25881;47.462;19.304;2023-02-15T07:09:41;60.45;;;32.08;;
40162;SDS011;25881;47.462;19.304;2023-02-15T07:12:06;60.03;;;31.57;;
40162;SDS011;25881;47.462;19.304;2023-02-15T07:14:51;56.95;;;30.67;;
40162;SDS011;25881;47.462;19.304;2023-02-15T07:17:16;55.78;;;30.70;;
40162;SDS011;25881;47.462;19.304;2023-02-15T07:19:42;61.47;;;31.58;;
40162;SDS011;25881;47.462;19.304;2023-02-15T07:22:07;61.03;;;31.63;;
40162;SDS011;25881;47.462;19.304;2023-02-15T07:24:33;58.90;;;32.27;;
40162;SDS011;25881;47.462;19.304;2023-02-15T07:26:58;61.78;;;30.80;;
40162;SDS011;25881;47.462;19.304;2023-02-15T07:29:23;79.18;;;37.63;;
40162;SDS011;25881;47.462;19.304;2023-02-15T07:31:49;64.05;;;35.28;;
40162;SDS011;25881;47.462;19.304;2023-02-15T07:34:14;62.53;;;35.05;;
40162;SDS011;25881;47.462;19.304;2023-02-15T07:36:40;58.47;;;33.08;;
40162;SDS011;25881;47.462;19.304;2023-02-15T07:39:06;63.90;;;33.20;;
40162;SDS011;25881;47.462;19.304;2023-02-15T07:41:31;57.53;;;29.80;;
40162;SDS011;25881;47.462;19.304;2023-02-15T07:43:56;55.37;;;30.37;;
40162;SDS011;25881;47.462;19.304;2023-02-15T07:46:21;56.27;;;28.93;;
40162;SDS011;25881;47.462;19.304;2023-02-15T07:48:47;50.95;;;26.55;;
40162;SDS011;25881;47.462;19.304;2023-02-15T07:51:12;52.78;;;27.63;;
40162;SDS011;25881;47.462;19.304;2023-02-15T07:53:39;50.38;;;25.63;;
40162;SDS011;25881;47.462;19.304;2023-02-15T07:56:06;48.47;;;26.55;;
40162;SDS011;25881;47.462;19.304;2023-02-15T07:58:31;51.33;;;26.90;;
40162;SDS011;25881;47.462;19.304;2023-02-15T08:01:16;47.97;;;24.95;;
40162;SDS011;25881;47.462;19.304;2023-02-15T08:03:41;48.92;;;25.67;;
40162;SDS011;25881;47.462;19.304;2023-02-15T08:06:07;53.83;;;27.73;;
40162;SDS011;25881;47.462;19.304;2023-02-15T08:08:35;46.92;;;26.45;;
40162;SDS011;25881;47.462;19.304;2023-02-15T08:11:04;53.70;;;28.48;;
40162;SDS011;25881;47.462;19.304;2023-02-15T08:13:50;48.92;;;26.23;;
40162;SDS011;25881;47.462;19.304;2023-02-15T08:16:19;54.42;;;28.25;;
40162;SDS011;25881;47.462;19.304;2023-02-15T08:18:45;53.53;;;28.30;;
40162;SDS011;25881;47.462;19.304;2023-02-15T08:21:10;51.40;;;27.43;;
40162;SDS011;25881;47.462;19.304;2023-02-15T08:23:35;50.07;;;26.03;;
40162;SDS011;25881;47.462;19.304;2023-02-15T08:26:00;47.90;;;25.30;;
40162;SDS011;25881;47.462;19.304;2023-02-15T08:28:26;48.55;;;27.08;;
40162;SDS011;25881;47.462;19.304;2023-02-15T08:30:51;51.67;;;25.63;;
40162;SDS011;25881;47.462;19.304;2023-02-15T08:33:16;55.33;;;25.53;;
40162;SDS011;25881;47.462;19.304;2023-02-15T08:35:43;48.78;;;23.33;;
40162;SDS011;25881;47.462;19.304;2023-02-15T08:38:08;48.78;;;25.20;;
40162;SDS011;25881;47.462;19.304;2023-02-15T08:40:33;53.90;;;25.60;;
40162;SDS011;25881;47.462;19.304;2023-02-15T08:42:59;46.58;;;26.08;;
40162;SDS011;25881;47.462;19.304;2023-02-15T08:45:25;51.13;;;26.38;;
40162;SDS011;25881;47.462;19.304;2023-02-15T08:47:50;48.03;;;26.52;;
40162;SDS011;25881;47.462;19.304;2023-02-15T08:50:15;50.00;;;27.08;;
40162;SDS011;25881;47.462;19.304;2023-02-15T08:52:41;50.47;;;27.48;;
40162;SDS011;25881;47.462;19.304;2023-02-15T08:55:06;56.97;;;28.17;;
40162;SDS011;25881;47.462;19.304;2023-02-15T08:57:31;46.30;;;27.50;;
40162;SDS011;25881;47.462;19.304;2023-02-15T08:59:57;53.45;;;27.55;;
40162;SDS011;25881;47.462;19.304;2023-02-15T09:02:22;49.47;;;27.03;;
40162;SDS011;25881;47.462;19.304;2023-02-15T09:04:47;49.60;;;27.30;;
40162;SDS011;25881;47.462;19.304;2023-02-15T09:07:12;48.88;;;26.67;;
40162;SDS011;25881;47.462;19.304;2023-02-15T09:09:38;47.75;;;24.33;;
40162;SDS011;25881;47.462;19.304;2023-02-15T09:12:03;43.40;;;25.43;;
40162;SDS011;25881;47.462;19.304;2023-02-15T09:14:28;47.05;;;24.80;;
40162;SDS011;25881;47.462;19.304;2023-02-15T09:16:54;42.33;;;24.83;;
40162;SDS011;25881;47.462;19.304;2023-02-15T09:19:20;47.85;;;25.75;;
40162;SDS011;25881;47.462;19.304;2023-02-15T09:21:45;47.40;;;25.80;;
40162;SDS011;25881;47.462;19.304;2023-02-15T09:24:11;47.03;;;26.17;;
40162;SDS011;25881;47.462;19.304;2023-02-15T09:26:38;41.92;;;23.23;;
40162;SDS011;25881;47.462;19.304;2023-02-15T09:29:05;48.83;;;25.42;;
40162;SDS011;25881;47.462;19.304;2023-02-15T09:31:32;41.38;;;23.55;;
40162;SDS011;25881;47.462;19.304;2023-02-15T09:33:58;45.80;;;24.42;;
40162;SDS011;25881;47.462;19.304;2023-02-15T09:36:31;43.42;;;23.60;;
40162;SDS011;25881;47.462;19.304;2023-02-15T09:39:03;48.38;;;26.95;;
40162;SDS011;25881;47.462;19.304;2023-02-15T09:41:50;50.20;;;27.27;;
40162;SDS011;25881;47.462;19.304;2023-02-15T09:57:15;55.35;;;31.13;;
40162;SDS011;25881;47.462;19.304;2023-02-15T10:12:32;48.97;;;26.87;;
40162;SDS011;25881;47.462;19.304;2023-02-15T10:15:23;53.45;;;28.25;;
40162;SDS011;25881;47.462;19.304;2023-02-15T10:28:19;38.27;;;22.10;;
40162;SDS011;25881;47.462;19.304;2023-02-15T10:30:49;39.80;;;22.58;;
40162;SDS011;25881;47.462;19.304;2023-02-15T10:38:31;49.95;;;28.30;;
40162;SDS011;25881;47.462;19.304;2023-02-15T10:51:37;53.92;;;29.27;;
40162;SDS011;25881;47.462;19.304;2023-02-15T10:56:53;45.92;;;25.85;;
40162;SDS011;25881;47.462;19.304;2023-02-15T11:01:51;42.83;;;25.45;;
40162;SDS011;25881;47.462;19.304;2023-02-15T11:06:46;45.53;;;27.27;;
40162;SDS011;25881;47.462;19.304;2023-02-15T11:09:16;54.25;;;32.10;;
40162;SDS011;25881;47.462;19.304;2023-02-15T11:11:47;109.35;;;54.97;;
40162;SDS011;25881;47.462;19.304;2023-02-15T11:16:39;43.20;;;24.85;;
40162;SDS011;25881;47.462;19.304;2023-02-15T11:24:07;39.65;;;22.48;;
40162;SDS011;25881;47.462;19.304;2023-02-15T11:26:37;43.80;;;23.58;;
40162;SDS011;25881;47.462;19.304;2023-02-15T11:29:10;36.97;;;22.83;;
40162;SDS011;25881;47.462;19.304;2023-02-15T11:31:47;37.83;;;23.33;;
40162;SDS011;25881;47.462;19.304;2023-02-15T11:37:16;43.50;;;25.08;;
40162;SDS011;25881;47.462;19.304;2023-02-15T11:39:43;41.92;;;23.17;;
40162;SDS011;25881;47.462;19.304;2023-02-15T11:42:13;41.97;;;25.13;;
40162;SDS011;25881;47.462;19.304;2023-02-15T11:44:41;47.78;;;27.48;;
40162;SDS011;25881;47.462;19.304;2023-02-15T11:47:10;49.75;;;28.98;;
40162;SDS011;25881;47.462;19.304;2023-02-15T11:52:05;48.17;;;28.50;;
40162;SDS011;25881;47.462;19.304;2023-02-15T11:54:31;52.05;;;29.88;;
40162;SDS011;25881;47.462;19.304;2023-02-15T11:59:39;47.58;;;30.42;;
40162;SDS011;25881;47.462;19.304;2023-02-15T12:02:13;52.78;;;29.90;;
40162;SDS011;25881;47.462;19.304;2023-02-15T12:04:40;43.97;;;27.15;;
40162;SDS011;25881;47.462;19.304;2023-02-15T12:07:11;50.88;;;29.77;;
40162;SDS011;25881;47.462;19.304;2023-02-15T12:12:27;56.75;;;29.33;;
40162;SDS011;25881;47.462;19.304;2023-02-15T12:14:56;45.65;;;28.70;;
40162;SDS011;25881;47.462;19.304;2023-02-15T12:17:29;50.30;;;27.75;;
40162;SDS011;25881;47.462;19.304;2023-02-15T12:20:04;48.78;;;29.05;;
40162;SDS011;25881;47.462;19.304;2023-02-15T12:22:33;50.28;;;30.73;;
40162;SDS011;25881;47.462;19.304;2023-02-15T12:25:00;47.63;;;29.80;;
40162;SDS011;25881;47.462;19.304;2023-02-15T12:27:27;52.47;;;29.17;;
40162;SDS011;25881;47.462;19.304;2023-02-15T12:29:56;48.95;;;26.77;;
40162;SDS011;25881;47.462;19.304;2023-02-15T12:32:27;54.13;;;29.70;;
40162;SDS011;25881;47.462;19.304;2023-02-15T12:43:08;44.88;;;26.35;;
40162;SDS011;25881;47.462;19.304;2023-02-15T12:45:48;40.25;;;24.85;;
40162;SDS011;25881;47.462;19.304;2023-02-15T12:50:41;46.28;;;27.13;;
40162;SDS011;25881;47.462;19.304;2023-02-15T12:55:54;45.30;;;28.58;;
40162;SDS011;25881;47.462;19.304;2023-02-15T12:58:24;49.15;;;28.67;;
40162;SDS011;25881;47.462;19.304;2023-02-15T13:03:33;51.70;;;30.35;;
40162;SDS011;25881;47.462;19.304;2023-02-15T13:05:59;50.05;;;30.42;;
40162;SDS011;25881;47.462;19.304;2023-02-15T13:13:24;52.83;;;32.90;;
40162;SDS011;25881;47.462;19.304;2023-02-15T13:15:51;56.95;;;32.38;;
40162;SDS011;25881;47.462;19.304;2023-02-15T13:18:20;51.67;;;30.73;;
40162;SDS011;25881;47.462;19.304;2023-02-15T13:20:48;51.60;;;33.65;;
40162;SDS011;25881;47.462;19.304;2023-02-15T13:23:32;52.08;;;31.63;;
40162;SDS011;25881;47.462;19.304;2023-02-15T13:25:59;52.10;;;32.28;;
40162;SDS011;25881;47.462;19.304;2023-02-15T13:30:52;55.40;;;33.30;;
40162;SDS011;25881;47.462;19.304;2023-02-15T13:36:02;53.10;;;32.03;;
40162;SDS011;25881;47.462;19.304;2023-02-15T13:41:00;54.80;;;31.52;;
40162;SDS011;25881;47.462;19.304;2023-02-15T13:49:05;65.97;;;42.97;;
40162;SDS011;25881;47.462;19.304;2023-02-15T13:54:56;53.08;;;31.95;;
40162;SDS011;25881;47.462;19.304;2023-02-15T13:57:48;51.15;;;30.02;;
40162;SDS011;25881;47.462;19.304;2023-02-15T14:08:11;52.30;;;30.65;;
40162;SDS011;25881;47.462;19.304;2023-02-15T14:15:58;47.17;;;28.95;;
40162;SDS011;25881;47.462;19.304;2023-02-15T14:18:45;51.88;;;32.03;;
40162;SDS011;25881;47.462;19.304;2023-02-15T14:21:27;51.00;;;32.45;;
40162;SDS011;25881;47.462;19.304;2023-02-15T14:31:14;52.55;;;31.83;;
40162;SDS011;25881;47.462;19.304;2023-02-15T14:33:41;51.05;;;32.30;;
40162;SDS011;25881;47.462;19.304;2023-02-15T14:36:10;58.70;;;34.33;;
40162;SDS011;25881;47.462;19.304;2023-02-15T14:41:19;51.40;;;31.02;;
40162;SDS011;25881;47.462;19.304;2023-02-15T14:49:22;53.38;;;32.38;;
40162;SDS011;25881;47.462;19.304;2023-02-15T14:56:46;51.55;;;33.05;;
40162;SDS011;25881;47.462;19.304;2023-02-15T14:59:37;50.70;;;31.85;;
40162;SDS011;25881;47.462;19.304;2023-02-15T15:02:10;49.50;;;30.48;;
40162;SDS011;25881;47.462;19.304;2023-02-15T15:04:39;67.22;;;41.67;;
40162;SDS011;25881;47.462;19.304;2023-02-15T15:07:09;62.70;;;40.05;;
40162;SDS011;25881;47.462;19.304;2023-02-15T15:09:39;52.50;;;31.45;;
40162;SDS011;25881;47.462;19.304;2023-02-15T15:14:43;50.30;;;30.98;;
40162;SDS011;25881;47.462;19.304;2023-02-15T15:17:13;45.15;;;30.77;;
40162;SDS011;25881;47.462;19.304;2023-02-15T15:22:19;51.35;;;30.52;;
40162;SDS011;25881;47.462;19.304;2023-02-15T15:24:46;50.38;;;30.52;;
40162;SDS011;25881;47.462;19.304;2023-02-15T15:29:55;50.42;;;30.05;;
40162;SDS011;25881;47.462;19.304;2023-02-15T15:32:22;50.53;;;30.00;;
40162;SDS011;25881;47.462;19.304;2023-02-15T15:45:35;44.33;;;28.45;;
40162;SDS011;25881;47.462;19.304;2023-02-15T15:50:44;47.22;;;27.70;;
40162;SDS011;25881;47.462;19.304;2023-02-15T15:53:17;49.92;;;29.08;;
40162;SDS011;25881;47.462;19.304;2023-02-15T15:55:43;50.40;;;28.80;;
40162;SDS011;25881;47.462;19.304;2023-02-15T15:58:12;47.33;;;28.33;;
40162;SDS011;25881;47.462;19.304;2023-02-15T16:00:50;52.47;;;27.63;;
40162;SDS011;25881;47.462;19.304;2023-02-15T16:03:21;45.05;;;28.40;;
40162;SDS011;25881;47.462;19.304;2023-02-15T16:05:47;47.50;;;28.40;;
40162;SDS011;25881;47.462;19.304;2023-02-15T16:08:38;47.55;;;29.58;;
40162;SDS011;25881;47.462;19.304;2023-02-15T16:11:19;50.00;;;30.60;;
40162;SDS011;25881;47.462;19.304;2023-02-15T16:13:46;50.72;;;30.55;;
40162;SDS011;25881;47.462;19.304;2023-02-15T16:16:12;47.22;;;28.52;;
40162;SDS011;25881;47.462;19.304;2023-02-15T16:18:38;53.63;;;28.23;;
40162;SDS011;25881;47.462;19.304;2023-02-15T16:21:13;91.90;;;32.67;;
40162;SDS011;25881;47.462;19.304;2023-02-15T16:26:19;65.47;;;34.13;;
40162;SDS011;25881;47.462;19.304;2023-02-15T16:28:50;59.47;;;33.05;;
40162;SDS011;25881;47.462;19.304;2023-02-15T16:31:16;55.17;;;33.20;;
40162;SDS011;25881;47.462;19.304;2023-02-15T16:33:42;57.00;;;35.65;;
40162;SDS011;25881;47.462;19.304;2023-02-15T16:36:19;66.97;;;39.47;;
40162;SDS011;25881;47.462;19.304;2023-02-15T16:41:11;75.50;;;44.63;;
40162;SDS011;25881;47.462;19.304;2023-02-15T16:43:37;78.22;;;45.28;;
40162;SDS011;25881;47.462;19.304;2023-02-15T16:46:05;78.72;;;44.55;;
40162;SDS011;25881;47.462;19.304;2023-02-15T16:48:32;69.80;;;41.83;;
40162;SDS011;25881;47.462;19.304;2023-02-15T16:50:58;69.57;;;40.38;;
40162;SDS011;25881;47.462;19.304;2023-02-15T16:53:25;68.63;;;39.20;;
40162;SDS011;25881;47.462;19.304;2023-02-15T16:55:52;71.90;;;40.47;;
40162;SDS011;25881;47.462;19.304;2023-02-15T16:58:19;70.13;;;40.33;;
40162;SDS011;25881;47.462;19.304;2023-02-15T17:00:48;71.70;;;40.65;;
40162;SDS011;25881;47.462;19.304;2023-02-15T17:10:31;73.00;;;40.05;;
40162;SDS011;25881;47.462;19.304;2023-02-15T17:13:03;70.72;;;40.95;;
40162;SDS011;25881;47.462;19.304;2023-02-15T17:17:58;69.80;;;40.20;;
40162;SDS011;25881;47.462;19.304;2023-02-15T17:20:24;67.32;;;38.75;;
40162;SDS011;25881;47.462;19.304;2023-02-15T17:22:50;68.97;;;39.38;;
40162;SDS011;25881;47.462;19.304;2023-02-15T17:25:20;72.78;;;42.20;;
40162;SDS011;25881;47.462;19.304;2023-02-15T17:27:50;74.22;;;41.28;;
40162;SDS011;25881;47.462;19.304;2023-02-15T17:30:32;76.75;;;42.17;;
40162;SDS011;25881;47.462;19.304;2023-02-15T17:33:01;76.35;;;40.92;;
40162;SDS011;25881;47.462;19.304;2023-02-15T17:35:27;72.10;;;40.67;;
40162;SDS011;25881;47.462;19.304;2023-02-15T17:38:13;70.13;;;40.53;;
40162;SDS011;25881;47.462;19.304;2023-02-15T17:40:40;75.07;;;41.97;;
40162;SDS011;25881;47.462;19.304;2023-02-15T17:43:06;74.93;;;43.85;;
40162;SDS011;25881;47.462;19.304;2023-02-15T17:45:46;80.93;;;46.45;;